createdAt,value
2019-03-27T00:01:25.965Z,25.37
2019-03-27T00:03:59.187Z,34.03
2019-03-27T00:06:27.681Z,42.70
2019-03-27T00:08:56.206Z,40.00
2019-03-27T00:11:24.759Z,36.70
2019-03-27T00:13:57.175Z,32.43
2019-03-27T00:16:28.343Z,30.67
2019-03-27T00:18:56.868Z,37.00
2019-03-27T00:21:25.565Z,30.70
2019-03-27T00:23:58.641Z,31.27
2019-03-27T00:26:29.791Z,36.93
2019-03-27T00:28:58.399Z,30.90
2019-03-27T00:31:26.859Z,35.70
2019-03-27T00:33:56.515Z,33.65
2019-03-27T00:36:28.897Z,29.93
2019-03-27T00:38:58.055Z,34.93
2019-03-27T00:41:26.773Z,34.03
2019-03-27T00:43:55.283Z,34.93
2019-03-27T00:46:29.719Z,36.07
2019-03-27T00:48:58.182Z,41.57
2019-03-27T00:51:26.896Z,39.77
2019-03-27T00:53:55.926Z,32.97
2019-03-27T00:56:24.397Z,34.13
2019-03-27T00:58:56.408Z,37.17
2019-03-27T01:01:26.549Z,40.07
2019-03-27T01:03:55.235Z,33.60
2019-03-27T01:06:28.326Z,40.27
2019-03-27T01:08:56.847Z,43.20
2019-03-27T01:11:26.629Z,34.33
2019-03-27T01:13:58.018Z,39.73
2019-03-27T01:16:26.482Z,37.00
2019-03-27T01:18:56.680Z,40.07
2019-03-27T01:21:25.270Z,38.20
2019-03-27T01:23:55.967Z,37.67
2019-03-27T01:26:24.453Z,44.47
2019-03-27T01:28:57.488Z,29.07
2019-03-27T01:31:30.809Z,42.17
2019-03-27T01:34:00.229Z,35.92
2019-03-27T01:36:28.682Z,35.00
2019-03-27T01:38:57.178Z,40.80
2019-03-27T01:41:27.294Z,43.13
2019-03-27T01:43:59.046Z,38.30
2019-03-27T01:46:27.310Z,43.83
2019-03-27T01:48:57.350Z,39.30
2019-03-27T01:51:27.508Z,33.47
2019-03-27T01:53:55.970Z,43.83
2019-03-27T01:56:24.720Z,34.70
2019-03-27T01:58:58.462Z,40.30
2019-03-27T02:01:26.933Z,42.37
2019-03-27T02:03:55.590Z,39.97
2019-03-27T02:06:24.459Z,43.47
2019-03-27T02:08:52.927Z,38.17
2019-03-27T02:11:21.469Z,40.17
2019-03-27T02:13:49.945Z,49.20
2019-03-27T02:16:18.404Z,40.23
2019-03-27T02:18:46.886Z,51.50
2019-03-27T02:21:15.793Z,45.20
2019-03-27T02:23:44.440Z,40.23
2019-03-27T02:26:12.946Z,40.03
2019-03-27T02:28:41.420Z,43.35
2019-03-27T02:31:10.172Z,41.60
2019-03-27T02:33:44.533Z,38.70
2019-03-27T02:36:12.429Z,40.23
2019-03-27T02:38:40.977Z,39.27
2019-03-27T02:41:09.537Z,49.40
2019-03-27T02:43:39.735Z,39.70
2019-03-27T02:46:23.774Z,43.63
2019-03-27T02:48:43.632Z,41.30
2019-03-27T02:51:13.096Z,49.73
2019-03-27T02:53:41.738Z,49.67
2019-03-27T02:56:10.314Z,45.83
2019-03-27T02:58:38.897Z,50.17
2019-03-27T03:01:08.395Z,51.30
2019-03-27T03:03:37.135Z,50.17
2019-03-27T03:06:07.906Z,45.03
2019-03-27T03:08:37.986Z,45.97
2019-03-27T03:11:06.558Z,47.15
2019-03-27T03:13:36.576Z,43.77
2019-03-27T03:16:09.232Z,51.73
2019-03-27T03:18:40.872Z,45.50
2019-03-27T03:21:09.410Z,51.13
2019-03-27T03:23:42.802Z,55.63
2019-03-27T03:26:11.376Z,42.90
2019-03-27T03:28:44.708Z,44.13
2019-03-27T03:31:14.761Z,48.13
2019-03-27T03:33:44.594Z,48.55
2019-03-27T03:36:13.073Z,49.03
2019-03-27T03:38:41.683Z,59.43
2019-03-27T03:41:11.308Z,40.37
2019-03-27T03:43:41.467Z,47.10
2019-03-27T03:46:11.564Z,48.42
2019-03-27T03:48:44.037Z,46.70
2019-03-27T03:51:14.373Z,42.88
2019-03-27T03:53:44.997Z,53.87
2019-03-27T03:56:15.238Z,58.70
2019-03-27T03:58:46.891Z,46.37
2019-03-27T04:01:17.434Z,50.95
2019-03-27T04:03:48.181Z,55.37
2019-03-27T04:06:16.667Z,44.42
2019-03-27T04:08:48.121Z,42.13
2019-03-27T04:11:17.887Z,54.17
2019-03-27T04:13:46.480Z,46.83
2019-03-27T04:16:18.429Z,45.60
2019-03-27T04:18:46.883Z,48.75
2019-03-27T04:21:19.010Z,43.97
2019-03-27T04:23:50.533Z,47.17
2019-03-27T04:26:19.065Z,54.53
2019-03-27T04:28:49.530Z,43.73
2019-03-27T04:31:17.951Z,47.17
2019-03-27T04:33:48.921Z,59.67
2019-03-27T04:36:17.483Z,56.13
2019-03-27T04:38:47.891Z,46.57
2019-03-27T04:41:17.895Z,53.47
2019-03-27T04:43:47.911Z,42.17
2019-03-27T04:46:19.139Z,53.13
2019-03-27T04:48:47.733Z,50.20
2019-03-27T04:51:17.374Z,46.53
2019-03-27T04:53:46.151Z,56.77
2019-03-27T04:56:17.393Z,50.13
2019-03-27T04:58:46.829Z,57.33
2019-03-27T05:01:16.940Z,46.97
2019-03-27T05:03:45.442Z,52.70
2019-03-27T05:06:14.350Z,46.30
2019-03-27T05:08:43.933Z,47.20
2019-03-27T05:11:14.932Z,51.53
2019-03-27T05:13:45.448Z,52.67
2019-03-27T05:16:15.239Z,46.00
2019-03-27T05:18:44.009Z,54.80
2019-03-27T05:21:17.206Z,52.13
2019-03-27T05:23:49.532Z,55.73
2019-03-27T05:26:20.832Z,56.63
2019-03-27T05:28:49.320Z,44.48
2019-03-27T05:31:17.780Z,45.23
2019-03-27T05:33:46.374Z,50.28
2019-03-27T05:36:14.844Z,55.60
2019-03-27T05:38:44.377Z,51.07
2019-03-27T05:41:12.886Z,48.20
2019-03-27T05:43:43.166Z,45.07
2019-03-27T05:46:11.941Z,48.93
2019-03-27T05:48:42.020Z,44.27
2019-03-27T05:51:10.542Z,47.13
2019-03-27T05:53:42.310Z,37.73
2019-03-27T05:56:15.300Z,43.00
2019-03-27T05:58:46.460Z,42.88
2019-03-27T06:01:14.934Z,39.33
2019-03-27T06:03:49.216Z,36.47
2019-03-27T06:06:20.028Z,36.00
2019-03-27T06:08:48.527Z,34.77
2019-03-27T06:11:17.014Z,39.13
2019-03-27T06:13:49.992Z,33.60
2019-03-27T06:16:19.470Z,39.00
2019-03-27T06:18:53.906Z,35.13
2019-03-27T06:21:23.908Z,37.60
2019-03-27T06:23:52.623Z,40.17
2019-03-27T06:26:22.884Z,36.23
2019-03-27T06:28:52.968Z,35.47
2019-03-27T06:31:25.878Z,37.77
2019-03-27T06:33:55.320Z,45.53
2019-03-27T06:36:24.938Z,34.20
2019-03-27T06:38:59.374Z,33.27
2019-03-27T06:41:27.880Z,38.93
2019-03-27T06:43:56.558Z,29.97
2019-03-27T06:46:26.693Z,40.50
2019-03-27T06:48:55.152Z,36.83
2019-03-27T06:51:39.549Z,31.37
2019-03-27T06:53:58.319Z,38.40
2019-03-27T06:56:28.314Z,34.67
2019-03-27T06:59:00.449Z,36.67
2019-03-27T07:01:28.941Z,40.33
2019-03-27T07:04:09.819Z,31.93
2019-03-27T07:06:30.209Z,33.65
2019-03-27T07:08:58.874Z,35.60
2019-03-27T07:11:30.015Z,34.33
2019-03-27T07:13:59.627Z,34.13
2019-03-27T07:16:32.436Z,33.17
2019-03-27T07:19:01.073Z,34.40
2019-03-27T07:21:33.748Z,33.57
2019-03-27T07:24:02.265Z,34.30
2019-03-27T07:26:30.730Z,33.30
2019-03-27T07:29:00.244Z,41.40
2019-03-27T07:31:28.747Z,26.00
2019-03-27T07:33:57.228Z,30.50
2019-03-27T07:36:29.614Z,29.97
2019-03-27T07:39:11.018Z,24.98
2019-03-27T07:41:38.405Z,28.77
2019-03-27T07:44:12.092Z,26.53
2019-03-27T07:46:45.001Z,23.97
2019-03-27T07:49:14.192Z,26.07
2019-03-27T07:51:42.750Z,25.80
2019-03-27T07:54:13.691Z,21.57
2019-03-27T07:56:42.165Z,23.53
2019-03-27T07:59:10.719Z,26.30
2019-03-27T08:01:39.222Z,19.50
2019-03-27T08:04:14.377Z,24.50
2019-03-27T08:06:46.831Z,17.87
2019-03-27T08:09:22.929Z,20.68
2019-03-27T08:11:50.113Z,19.45
2019-03-27T08:14:18.587Z,18.40
2019-03-27T08:16:47.071Z,20.88
2019-03-27T08:19:15.529Z,17.03
2019-03-27T08:21:44.212Z,19.23
2019-03-27T08:24:12.791Z,20.10
2019-03-27T08:26:41.305Z,15.00
2019-03-27T08:29:10.782Z,17.00
2019-03-27T08:31:40.712Z,14.87
2019-03-27T08:34:11.034Z,16.20
2019-03-27T08:36:45.494Z,19.90
2019-03-27T08:39:15.513Z,14.77
2019-03-27T08:41:54.242Z,14.57
2019-03-27T08:44:22.713Z,13.07
2019-03-27T08:46:51.188Z,12.90
2019-03-27T08:49:27.696Z,14.00
2019-03-27T08:51:58.788Z,13.30
2019-03-27T08:54:30.086Z,25.80
2019-03-27T08:56:58.652Z,20.23
2019-03-27T08:59:28.952Z,10.67
2019-03-27T09:01:58.786Z,12.67
2019-03-27T09:04:29.235Z,12.83
2019-03-27T09:06:59.233Z,10.82
2019-03-27T09:09:29.308Z,13.83
2019-03-27T09:11:58.022Z,10.73
2019-03-27T09:14:28.016Z,10.37
2019-03-27T09:16:59.422Z,9.13
2019-03-27T09:19:35.440Z,11.27
2019-03-27T09:21:59.833Z,10.93
2019-03-27T09:24:28.324Z,8.25
2019-03-27T09:26:58.129Z,10.63
2019-03-27T09:29:26.674Z,8.30
2019-03-27T09:31:57.978Z,10.87
2019-03-27T09:34:26.432Z,7.80
2019-03-27T09:36:54.890Z,11.63
2019-03-27T09:39:26.362Z,13.17
2019-03-27T09:41:57.676Z,6.60
2019-03-27T09:44:28.115Z,9.77
2019-03-27T09:46:56.353Z,12.00
2019-03-27T09:49:26.804Z,7.70
2019-03-27T09:51:55.185Z,12.78
2019-03-27T09:54:27.698Z,10.63
2019-03-27T09:56:57.284Z,13.48
2019-03-27T09:59:25.761Z,8.43
2019-03-27T10:01:56.910Z,11.93
2019-03-27T10:04:27.117Z,11.20
2019-03-27T10:06:57.290Z,13.63
2019-03-27T10:09:28.716Z,12.93
2019-03-27T10:11:58.752Z,12.37
2019-03-27T10:14:27.276Z,14.73
2019-03-27T10:16:58.766Z,17.27
2019-03-27T10:19:27.270Z,12.77
2019-03-27T10:21:57.291Z,15.67
2019-03-27T10:24:25.852Z,13.10
2019-03-27T10:26:58.756Z,14.03
2019-03-27T10:29:30.344Z,13.30
2019-03-27T10:32:00.494Z,14.23
2019-03-27T10:34:35.115Z,14.80
2019-03-27T10:37:03.789Z,11.50
2019-03-27T10:39:34.009Z,10.13
2019-03-27T10:42:04.894Z,13.97
2019-03-27T10:44:37.936Z,9.53
2019-03-27T10:47:06.579Z,14.17
2019-03-27T10:49:35.126Z,17.85
2019-03-27T10:52:03.587Z,10.93
2019-03-27T10:54:32.092Z,10.67
2019-03-27T10:57:00.563Z,13.97
2019-03-27T10:59:31.647Z,12.70
2019-03-27T11:02:00.157Z,15.80
2019-03-27T11:04:34.205Z,16.67
2019-03-27T11:07:02.751Z,15.77
2019-03-27T11:09:33.903Z,12.40
2019-03-27T11:12:02.443Z,7.23
2019-03-27T11:14:38.285Z,12.33
2019-03-27T11:17:06.569Z,8.10
2019-03-27T11:19:35.087Z,9.20
2019-03-27T11:22:05.975Z,10.67
2019-03-27T11:24:34.478Z,12.30
2019-03-27T11:27:07.156Z,14.70
2019-03-27T11:29:35.660Z,10.70
2019-03-27T11:32:04.155Z,7.13
2019-03-27T11:34:32.684Z,9.75
2019-03-27T11:37:05.219Z,7.97
2019-03-27T11:39:34.941Z,7.87
2019-03-27T11:42:03.519Z,11.67
2019-03-27T11:44:33.573Z,6.43
2019-03-27T11:47:02.089Z,10.07
2019-03-27T11:49:31.686Z,8.07
2019-03-27T11:52:00.140Z,5.23
2019-03-27T11:54:29.635Z,7.73
2019-03-27T11:56:58.201Z,6.10
2019-03-27T11:59:26.668Z,8.60
2019-03-27T12:02:00.481Z,10.83
2019-03-27T12:04:31.295Z,9.07
2019-03-27T12:07:03.824Z,7.95
2019-03-27T12:09:36.209Z,9.97
2019-03-27T12:12:07.384Z,13.03
2019-03-27T12:14:37.155Z,12.53
2019-03-27T12:17:05.619Z,11.23
2019-03-27T12:19:37.715Z,14.87
2019-03-27T12:22:05.949Z,11.93
2019-03-27T12:24:34.658Z,7.80
2019-03-27T12:27:06.331Z,10.23
2019-03-27T12:29:36.153Z,12.60
2019-03-27T12:32:11.572Z,10.40
2019-03-27T12:34:41.635Z,9.33
2019-03-27T12:37:12.358Z,16.90
2019-03-27T12:39:46.744Z,15.32
2019-03-27T12:42:16.251Z,10.98
2019-03-27T12:44:47.333Z,13.57
2019-03-27T12:47:16.613Z,10.60
2019-03-27T12:49:46.613Z,15.57
2019-03-27T12:52:16.608Z,13.57
2019-03-27T12:54:45.102Z,12.37
2019-03-27T12:57:17.776Z,12.30
2019-03-27T12:59:49.046Z,11.12
2019-03-27T13:02:17.844Z,7.37
2019-03-27T13:04:52.408Z,7.45
2019-03-27T13:07:20.830Z,8.60
2019-03-27T13:09:49.328Z,6.35
2019-03-27T13:12:21.556Z,9.83
2019-03-27T13:14:50.582Z,7.72
2019-03-27T13:17:23.629Z,5.40
2019-03-27T13:19:55.960Z,8.28
2019-03-27T13:22:28.882Z,10.80
2019-03-27T13:24:58.543Z,7.45
2019-03-27T13:27:27.070Z,8.00
2019-03-27T13:29:59.750Z,7.23
2019-03-27T13:32:30.412Z,9.30
2019-03-27T13:34:59.030Z,11.97
2019-03-27T13:37:31.856Z,6.37
2019-03-27T13:40:02.085Z,9.13
2019-03-27T13:42:32.264Z,12.93
2019-03-27T13:45:01.842Z,12.03
2019-03-27T13:47:30.441Z,13.17
2019-03-27T13:50:00.588Z,12.60
2019-03-27T13:52:30.332Z,50.40
2019-03-27T13:54:58.836Z,66.67
2019-03-27T13:57:28.716Z,42.43
2019-03-27T14:00:01.676Z,24.35
2019-03-27T14:02:31.185Z,9.67
2019-03-27T14:05:01.410Z,9.30
2019-03-27T14:07:35.960Z,13.30
2019-03-27T14:10:07.152Z,14.53
2019-03-27T14:12:35.780Z,14.63
2019-03-27T14:15:06.974Z,13.60
2019-03-27T14:17:35.430Z,9.27
2019-03-27T14:20:10.863Z,12.47
2019-03-27T14:22:40.304Z,12.35
2019-03-27T14:25:12.510Z,19.20
2019-03-27T14:27:41.039Z,15.50
2019-03-27T14:30:12.597Z,12.63
2019-03-27T14:32:42.266Z,11.03
2019-03-27T14:35:11.220Z,8.83
2019-03-27T14:37:47.453Z,11.67
2019-03-27T14:40:16.493Z,11.23
2019-03-27T14:42:46.504Z,12.33
2019-03-27T14:45:18.403Z,11.60
2019-03-27T14:47:47.423Z,11.43
2019-03-27T14:50:18.118Z,13.78
2019-03-27T14:52:47.274Z,9.78
2019-03-27T14:55:20.482Z,9.57
2019-03-27T14:57:48.963Z,14.87
2019-03-27T15:00:20.259Z,10.97
2019-03-27T15:02:50.441Z,7.47
2019-03-27T15:05:19.160Z,8.73
2019-03-27T15:07:50.453Z,10.20
2019-03-27T15:10:18.939Z,9.47
2019-03-27T15:12:48.964Z,8.20
2019-03-27T15:15:18.695Z,9.27
2019-03-27T15:17:47.207Z,7.63
2019-03-27T15:20:21.168Z,8.25
2019-03-27T15:22:54.066Z,10.38
2019-03-27T15:25:24.301Z,8.48
2019-03-27T15:27:54.861Z,9.50
2019-03-27T15:30:25.497Z,10.30
2019-03-27T15:32:56.625Z,13.50
2019-03-27T15:35:31.640Z,12.43
2019-03-27T15:38:00.180Z,11.43
2019-03-27T15:40:43.863Z,12.27
2019-03-27T15:43:12.517Z,8.50
2019-03-27T15:45:42.788Z,9.50
2019-03-27T15:48:13.829Z,10.20
2019-03-27T15:50:56.892Z,11.00
2019-03-27T15:53:17.714Z,10.90
2019-03-27T15:55:47.309Z,9.60
2019-03-27T15:58:16.188Z,9.33
2019-03-27T16:00:47.501Z,11.90
2019-03-27T16:03:17.381Z,12.23
2019-03-27T16:05:47.552Z,10.73
2019-03-27T16:08:16.014Z,7.93
2019-03-27T16:10:46.667Z,12.60
2019-03-27T16:13:19.459Z,10.33
2019-03-27T16:15:49.378Z,13.00
2019-03-27T16:18:19.704Z,8.58
2019-03-27T16:20:48.206Z,10.90
2019-03-27T16:23:17.650Z,9.90
2019-03-27T16:25:50.616Z,9.95
2019-03-27T16:28:19.136Z,10.60
2019-03-27T16:30:48.622Z,9.37
2019-03-27T16:33:17.166Z,10.87
2019-03-27T16:35:45.758Z,11.00
2019-03-27T16:38:14.217Z,10.20
2019-03-27T16:40:44.117Z,10.10
2019-03-27T16:43:12.784Z,9.50
2019-03-27T16:45:41.244Z,12.03
2019-03-27T16:48:11.316Z,11.23
2019-03-27T16:50:39.820Z,13.43
2019-03-27T16:53:09.932Z,8.28
2019-03-27T16:55:40.748Z,9.85
2019-03-27T16:58:09.260Z,11.67
2019-03-27T17:00:41.889Z,15.45
2019-03-27T17:03:10.640Z,14.80
2019-03-27T17:05:53.332Z,14.10
2019-03-27T17:08:14.425Z,12.33
2019-03-27T17:10:44.664Z,11.40
2019-03-27T17:13:16.321Z,11.13
2019-03-27T17:15:47.739Z,12.85
2019-03-27T17:18:16.252Z,16.90
2019-03-27T17:20:47.107Z,13.23
2019-03-27T17:23:20.293Z,11.13
2019-03-27T17:25:48.925Z,13.60
2019-03-27T17:28:22.042Z,14.20
2019-03-27T17:30:50.651Z,15.00
2019-03-27T17:33:23.523Z,14.20
2019-03-27T17:35:53.323Z,15.37
2019-03-27T17:38:23.300Z,14.13
2019-03-27T17:40:54.687Z,16.47
2019-03-27T17:43:24.517Z,16.83
2019-03-27T17:45:54.561Z,14.30
2019-03-27T17:48:23.147Z,21.02
2019-03-27T17:50:54.573Z,18.07
2019-03-27T17:53:31.388Z,16.17
2019-03-27T17:55:56.149Z,15.90
2019-03-27T17:58:25.041Z,17.40
2019-03-27T18:00:53.506Z,17.80
2019-03-27T18:03:25.899Z,19.10
2019-03-27T18:05:54.396Z,17.97
2019-03-27T18:08:22.862Z,17.40
2019-03-27T18:10:58.181Z,19.12
2019-03-27T18:13:27.388Z,16.70
2019-03-27T18:15:56.905Z,20.77
2019-03-27T18:18:25.368Z,17.47
2019-03-27T18:20:54.437Z,20.47
2019-03-27T18:23:23.067Z,20.23
2019-03-27T18:25:52.823Z,21.73
2019-03-27T18:28:22.297Z,23.23
2019-03-27T18:30:52.317Z,21.30
2019-03-27T18:33:20.860Z,19.87
2019-03-27T18:35:49.633Z,20.03
2019-03-27T18:38:18.167Z,19.83
2019-03-27T18:40:48.159Z,17.63
2019-03-27T18:43:18.213Z,19.93
2019-03-27T18:45:47.871Z,22.43
2019-03-27T18:48:18.832Z,15.65
2019-03-27T18:50:47.347Z,19.80
2019-03-27T18:53:15.825Z,17.93
2019-03-27T18:55:47.207Z,20.70
2019-03-27T18:58:15.791Z,24.07
2019-03-27T19:00:48.233Z,30.50
2019-03-27T19:03:18.179Z,23.75
2019-03-27T19:05:46.756Z,19.87
2019-03-27T19:08:15.295Z,23.07
2019-03-27T19:10:43.838Z,18.00
2019-03-27T19:13:14.829Z,25.52
2019-03-27T19:15:50.063Z,20.00
2019-03-27T19:18:18.543Z,20.27
2019-03-27T19:20:47.045Z,20.10
2019-03-27T19:23:15.746Z,18.30
2019-03-27T19:25:45.515Z,18.20
2019-03-27T19:28:24.459Z,19.13
2019-03-27T19:30:53.352Z,19.27
2019-03-27T19:33:23.225Z,20.83
2019-03-27T19:35:52.865Z,17.40
2019-03-27T19:38:27.496Z,19.00
2019-03-27T19:40:56.013Z,16.77
2019-03-27T19:43:24.647Z,19.67
2019-03-27T19:45:53.211Z,13.93
2019-03-27T19:48:24.000Z,16.43
2019-03-27T19:50:53.071Z,19.70
2019-03-27T19:53:21.966Z,14.30
2019-03-27T19:55:50.439Z,19.53
2019-03-27T19:58:18.944Z,17.03
2019-03-27T20:00:47.488Z,16.57
2019-03-27T20:03:16.146Z,16.17
2019-03-27T20:05:46.357Z,19.53
2019-03-27T20:08:14.892Z,17.10
2019-03-27T20:10:46.382Z,15.93
2019-03-27T20:13:20.586Z,15.53
2019-03-27T20:15:49.071Z,15.20
2019-03-27T20:18:19.505Z,19.30
2019-03-27T20:20:48.043Z,17.50
2019-03-27T20:23:17.815Z,14.97
2019-03-27T20:25:46.402Z,14.23
2019-03-27T20:28:15.059Z,17.60
2019-03-27T20:30:45.138Z,14.73
2019-03-27T20:33:18.584Z,16.20
2019-03-27T20:35:47.052Z,14.07
2019-03-27T20:38:17.062Z,16.25
2019-03-27T20:40:45.557Z,19.00
2019-03-27T20:43:14.033Z,17.50
2019-03-27T20:45:46.625Z,18.00
2019-03-27T20:48:17.916Z,15.40
2019-03-27T20:50:48.370Z,16.40
2019-03-27T20:53:16.860Z,14.30
2019-03-27T20:55:47.305Z,16.97
2019-03-27T20:58:19.543Z,16.43
2019-03-27T21:00:56.012Z,14.10
2019-03-27T21:03:29.217Z,15.20
2019-03-27T21:05:59.575Z,14.47
2019-03-27T21:08:32.605Z,15.10
2019-03-27T21:11:03.016Z,11.87
2019-03-27T21:13:31.568Z,12.50
2019-03-27T21:16:00.159Z,10.68
2019-03-27T21:18:30.131Z,12.50
2019-03-27T21:21:02.260Z,18.00
2019-03-27T21:23:32.617Z,12.47
2019-03-27T21:26:03.039Z,13.75
2019-03-27T21:28:32.173Z,12.67
2019-03-27T21:31:01.936Z,15.43
2019-03-27T21:33:33.328Z,14.63
2019-03-27T21:36:04.108Z,15.00
2019-03-27T21:38:32.700Z,14.13
2019-03-27T21:41:06.637Z,12.20
2019-03-27T21:43:41.971Z,14.70
2019-03-27T21:46:12.083Z,17.43
2019-03-27T21:48:42.593Z,14.60
2019-03-27T21:51:11.306Z,16.40
2019-03-27T21:53:39.922Z,13.20
2019-03-27T21:56:08.644Z,16.90
2019-03-27T21:58:40.371Z,12.80
2019-03-27T22:01:09.574Z,17.50
2019-03-27T22:03:42.640Z,15.10
2019-03-27T22:06:12.766Z,14.17
2019-03-27T22:08:41.358Z,18.50
2019-03-27T22:11:11.590Z,16.13
2019-03-27T22:13:40.314Z,13.53
2019-03-27T22:16:11.082Z,17.23
2019-03-27T22:18:41.294Z,14.70
2019-03-27T22:21:09.865Z,18.63
2019-03-27T22:23:42.581Z,17.40
2019-03-27T22:26:11.157Z,20.83
2019-03-27T22:28:50.289Z,18.70
2019-03-27T22:34:06.661Z,19.33
2019-03-27T22:36:35.230Z,20.30
2019-03-27T22:39:07.023Z,24.27
2019-03-27T22:41:36.207Z,19.20
2019-03-27T22:44:05.839Z,17.65
2019-03-27T22:46:35.599Z,17.77
2019-03-27T22:49:04.204Z,19.82
2019-03-27T22:51:35.763Z,20.93
2019-03-27T22:54:07.210Z,24.77
2019-03-27T22:56:35.821Z,25.00
2019-03-27T22:59:04.738Z,21.13
2019-03-27T23:01:45.684Z,17.60
2019-03-27T23:04:17.347Z,19.47
2019-03-27T23:06:45.911Z,16.27
2019-03-27T23:09:14.665Z,21.03
2019-03-27T23:11:44.517Z,16.37
2019-03-27T23:14:17.601Z,20.87
2019-03-27T23:16:47.175Z,18.20
2019-03-27T23:19:15.769Z,22.27
2019-03-27T23:21:44.417Z,17.37
2019-03-27T23:24:15.022Z,18.00
2019-03-27T23:26:44.513Z,21.97
2019-03-27T23:29:14.621Z,17.87
2019-03-27T23:31:47.303Z,16.93
2019-03-27T23:34:17.951Z,17.70
2019-03-27T23:36:46.511Z,20.80
2019-03-27T23:39:21.681Z,23.07
2019-03-27T23:41:50.211Z,24.10
2019-03-27T23:44:21.430Z,19.47
2019-03-27T23:46:50.029Z,21.17
2019-03-27T23:49:18.598Z,23.13
2019-03-27T23:51:47.205Z,21.17
2019-03-27T23:54:15.904Z,20.30
2019-03-27T23:56:44.476Z,22.47
2019-03-27T23:59:14.541Z,24.63
